Terminal Aerodrome Forecast
Issued by NWS Pittsburgh, PA

Current Version | Previous Version | Graphics & Text | Print | Product List | Glossary On
Versions: 1 2 3 4 5 6 7 8 9 10 11 12 13 14 15 16 17 18 19 20 21 22 23 24 25 26 27 28 29 30 31 32 33 34 35 36 37 38 39 40 41
150
FTUS41 KPBZ 282257 AAC
TAFPIT
TAF AMD
KPIT 282257Z 2823/2924 17005KT P6SM VCSH SCT020 OVC050
      TEMPO 2823/2824 -SHRA BKN020
     FM290300 VRB03KT 5SM BR BKN035
     FM290900 00000KT 4SM BR OVC015
     FM291100 32003KT 3SM BR OVC008
     FM291330 33004KT P6SM BKN035=

USA.gov is the U.S. government's official web portal to all federal, state and local government web resources and services.